Pagina principale
METAR-TAF:

METAR-TAF

Aeroporti :

Aeroporto di Vladikavkaz

Vladikavkaz, Russia

latitudine: 43-12-18N, longitudine: 044-36-24E, altezza: 510 m

Osservazione

Il bollettino è stato emesso 3 ore e 35 minuti fa, alle 17:00 UTC
Vento 6 kt da est/sud-est
Temperature -5°C
Umidità 93%
Pressione 1026 hPa
Visibilità 10 km o più
Nubi sparse

METAR: URMO 201700Z 11003MPS 9999 SCT/// M05/M06 Q1026 R09/010070 NOSIG RMK QFE726/0968

Ora: 23:35 (20:35 UTC)

Previsione

Il bollettino è stato emesso 6 ore e 35 minuti fa, alle 14:00 UTC
Previsione valida dal 20 alle 15 UTC al 20 alle 24 UTC
Vento 6 kt da est con raffiche fino a 16 kt
Visibilità 10 km o più
Nubi sparse ad un'altezza di 2000 ft

TAF: URMO 201400Z 2015/2024 08003G08MPS 9999 SCT020

Osservazioni e previsioni meteorologiche di più di 4000 aeroporti (messaggi METAR e TAF).

Le stazioni disponibili sono rappresentate dai dischi gialli e rossi sulla carta.

Puntare il mouse per vedere il nome della stazione.

Clicca sopra per visualizzare le osservazioni e previsioni meteorologiche.

Per cambiare la mappa : fare clic sui pulsanti verdi con una croce nera per ingrandire, il pulsante verde con un trattino per diminuire, o sulla freccia verde per le mappe adiacenti.


METAR-TAF: